createdAt,value
2019-05-19T00:02:34.515Z,99.90
2019-05-19T00:05:02.175Z,99.90
2019-05-19T00:07:29.816Z,99.90
2019-05-19T00:09:57.485Z,99.90
2019-05-19T00:12:25.126Z,99.90
2019-05-19T00:14:52.775Z,99.90
2019-05-19T00:17:20.411Z,99.90
2019-05-19T00:19:48.092Z,99.90
2019-05-19T00:22:15.790Z,99.90
2019-05-19T00:24:43.524Z,99.90
2019-05-19T00:27:11.191Z,99.90
2019-05-19T00:29:38.843Z,99.90
2019-05-19T00:32:06.500Z,99.90
2019-05-19T00:34:34.167Z,99.90
2019-05-19T00:37:01.818Z,99.90
2019-05-19T00:39:29.670Z,99.90
2019-05-19T00:42:03.280Z,99.90
2019-05-19T00:44:30.939Z,99.90
2019-05-19T00:46:58.583Z,99.90
2019-05-19T00:49:38.901Z,99.90
2019-05-19T00:51:56.587Z,99.90
2019-05-19T00:54:24.299Z,99.90
2019-05-19T00:56:52.018Z,99.90
2019-05-19T00:59:19.690Z,99.90
2019-05-19T01:01:47.332Z,99.90
2019-05-19T01:04:14.999Z,99.90
2019-05-19T01:33:43.859Z,99.90
2019-05-19T01:36:11.524Z,99.90
2019-05-19T01:38:39.151Z,99.90
2019-05-19T01:41:06.803Z,99.90
2019-05-19T01:43:34.457Z,99.90
2019-05-19T01:46:02.187Z,99.90
2019-05-19T01:48:29.887Z,99.90
2019-05-19T01:50:57.522Z,99.90
2019-05-19T01:53:25.162Z,99.90
2019-05-19T01:55:52.819Z,99.90
2019-05-19T01:58:20.459Z,99.90
2019-05-19T02:00:48.102Z,99.90
2019-05-19T02:03:15.754Z,99.90
2019-05-19T02:05:43.400Z,99.90
2019-05-19T02:08:11.030Z,99.90
2019-05-19T02:10:38.757Z,99.90
2019-05-19T02:13:06.384Z,99.90
2019-05-19T02:15:34.034Z,99.90
2019-05-19T02:18:01.816Z,99.90
2019-05-19T02:20:33.329Z,99.90
2019-05-19T02:22:58.850Z,99.90
2019-05-19T02:25:26.493Z,99.90
2019-05-19T02:27:54.131Z,99.90
2019-05-19T02:30:22.259Z,99.90
2019-05-19T02:35:17.388Z,99.90
2019-05-19T02:37:45.025Z,99.90
2019-05-19T02:40:13.054Z,99.90
2019-05-19T02:42:41.362Z,99.90
2019-05-19T02:45:09.611Z,99.90
2019-05-19T02:47:38.221Z,99.90
2019-05-19T02:50:07.756Z,99.90
2019-05-19T02:52:35.787Z,99.90
2019-05-19T02:55:03.676Z,99.90
2019-05-19T02:57:31.857Z,99.90
2019-05-19T02:59:59.573Z,99.90
2019-05-19T03:02:36.479Z,99.90
2019-05-19T03:05:04.712Z,99.90
2019-05-19T03:07:32.348Z,99.90
2019-05-19T03:10:00.003Z,99.90
2019-05-19T03:12:27.691Z,99.90
2019-05-19T03:14:55.359Z,99.90
2019-05-19T03:17:23.060Z,99.90
2019-05-19T03:19:50.732Z,99.90
2019-05-19T03:22:18.388Z,99.90
2019-05-19T03:24:46.019Z,99.90
2019-05-19T03:27:13.716Z,99.90
2019-05-19T03:29:43.024Z,99.90
2019-05-19T03:32:23.248Z,99.90
2019-05-19T03:34:50.882Z,99.90
2019-05-19T03:37:18.524Z,99.90
2019-05-19T03:39:46.163Z,99.90
2019-05-19T03:42:13.872Z,99.90
2019-05-19T03:44:41.514Z,99.90
2019-05-19T03:47:09.200Z,99.90
2019-05-19T03:56:59.907Z,99.90
2019-05-19T03:59:27.552Z,99.90
2019-05-19T04:01:55.273Z,99.90
2019-05-19T04:04:22.907Z,99.90
2019-05-19T04:06:50.547Z,99.90
2019-05-19T04:09:18.187Z,99.90
2019-05-19T04:11:45.851Z,99.90
2019-05-19T04:14:13.494Z,99.90
2019-05-19T04:16:41.150Z,99.90
2019-05-19T04:19:08.786Z,99.90
2019-05-19T04:21:48.424Z,99.90
2019-05-19T04:24:07.708Z,99.90
2019-05-19T04:26:35.360Z,99.90
2019-05-19T04:31:30.372Z,99.90
2019-05-19T04:33:57.995Z,99.90
2019-05-19T04:36:25.639Z,99.90
2019-05-19T04:38:53.276Z,99.90
2019-05-19T04:41:20.916Z,99.90
2019-05-19T04:43:48.548Z,99.90
2019-05-19T04:48:43.572Z,99.90
2019-05-19T04:51:11.228Z,99.90
2019-05-19T04:53:38.867Z,99.90
2019-05-19T04:56:06.519Z,99.90
2019-05-19T04:58:34.151Z,99.90
2019-05-19T05:01:01.792Z,99.90
2019-05-19T05:03:29.776Z,99.90
2019-05-19T05:05:57.408Z,99.90
2019-05-19T05:08:30.382Z,99.90
2019-05-19T05:10:54.420Z,99.90
2019-05-19T05:13:22.075Z,99.90
2019-05-19T05:15:49.707Z,99.90
2019-05-19T05:18:17.346Z,99.90
2019-05-19T05:20:44.988Z,99.90
2019-05-19T05:28:07.376Z,99.90
2019-05-19T05:30:35.019Z,99.90
2019-05-19T05:35:30.035Z,99.90
2019-05-19T05:37:57.684Z,99.90
2019-05-19T05:40:25.315Z,99.90
2019-05-19T05:42:53.948Z,99.90
2019-05-19T05:45:21.593Z,99.90
2019-05-19T05:47:49.251Z,99.90
2019-05-19T05:52:44.274Z,99.90
2019-05-19T05:55:12.001Z,99.90
2019-05-19T05:57:39.654Z,99.90
2019-05-19T06:00:07.662Z,99.90
2019-05-19T06:02:36.242Z,99.90
2019-05-19T06:05:04.551Z,99.90
2019-05-19T06:07:32.226Z,99.90
2019-05-19T06:09:59.917Z,99.90
2019-05-19T06:12:28.544Z,99.90
2019-05-19T06:14:56.187Z,99.90
2019-05-19T06:17:23.887Z,99.90
2019-05-19T06:19:51.553Z,99.90
2019-05-19T06:22:19.219Z,99.90
2019-05-19T06:24:46.883Z,99.90
2019-05-19T06:27:14.535Z,99.90
2019-05-19T06:32:11.233Z,99.90
2019-05-19T06:34:38.880Z,99.90
2019-05-19T06:37:06.536Z,99.90
2019-05-19T06:39:34.200Z,99.90
2019-05-19T06:42:01.859Z,99.90
2019-05-19T06:44:29.529Z,99.90
2019-05-19T06:46:57.258Z,99.90
2019-05-19T06:51:52.280Z,99.90
2019-05-19T06:54:19.949Z,99.90
2019-05-19T06:56:47.780Z,99.90
2019-05-19T06:59:15.442Z,99.90
2019-05-19T07:01:44.017Z,99.90
2019-05-19T07:04:11.689Z,99.90
2019-05-19T07:06:39.375Z,99.90
2019-05-19T07:09:07.328Z,99.90
2019-05-19T07:11:34.998Z,99.90
2019-05-19T07:14:03.142Z,99.90
2019-05-19T07:18:58.285Z,99.90
2019-05-19T07:21:25.981Z,99.90
2019-05-19T07:23:53.685Z,99.90
2019-05-19T07:26:21.347Z,99.90
2019-05-19T07:31:16.483Z,99.90
2019-05-19T07:33:44.136Z,99.90
2019-05-19T07:36:11.801Z,99.90
2019-05-19T07:38:39.481Z,99.90
2019-05-19T07:41:07.129Z,99.90
2019-05-19T07:43:34.803Z,99.90
2019-05-19T07:46:02.493Z,99.90
2019-05-19T07:48:30.192Z,99.90
2019-05-19T07:50:57.861Z,99.90
2019-05-19T07:53:25.515Z,99.90
2019-05-19T07:55:53.175Z,99.90
2019-05-19T07:58:20.890Z,99.90
2019-05-19T08:00:48.672Z,99.90
2019-05-19T08:03:16.339Z,99.90
2019-05-19T08:08:11.386Z,99.90
2019-05-19T08:10:39.031Z,99.90
2019-05-19T08:13:06.710Z,99.90
2019-05-19T08:15:34.372Z,99.90
2019-05-19T08:18:03.780Z,99.90
2019-05-19T08:20:31.452Z,99.90
2019-05-19T08:22:59.170Z,99.90
2019-05-19T08:25:26.888Z,99.90
2019-05-19T08:30:22.017Z,99.90
2019-05-19T08:32:49.733Z,99.90
2019-05-19T08:35:17.508Z,99.90
2019-05-19T08:37:45.212Z,99.90
2019-05-19T08:40:12.964Z,99.90
2019-05-19T08:42:40.692Z,99.90
2019-05-19T08:45:09.449Z,99.90
2019-05-19T08:47:37.165Z,99.90
2019-05-19T08:50:05.749Z,99.90
2019-05-19T08:52:33.433Z,99.90
2019-05-19T08:55:01.111Z,99.90
2019-05-19T08:57:28.759Z,99.90
2019-05-19T08:59:56.431Z,99.90
2019-05-19T09:02:24.081Z,99.90
2019-05-19T09:04:51.755Z,99.90
2019-05-19T09:07:19.407Z,99.90
2019-05-19T09:09:47.114Z,99.90
2019-05-19T09:12:14.807Z,99.90
2019-05-19T09:14:42.467Z,99.90
2019-05-19T09:17:10.144Z,99.90
2019-05-19T09:19:37.872Z,99.90
2019-05-19T09:22:05.533Z,99.90
2019-05-19T09:24:33.195Z,99.90
2019-05-19T09:27:00.850Z,99.90
2019-05-19T09:31:55.884Z,99.90
2019-05-19T09:36:50.929Z,99.90
2019-05-19T09:39:18.599Z,99.90
2019-05-19T09:41:46.231Z,99.90
2019-05-19T09:46:41.274Z,99.90
2019-05-19T09:49:27.112Z,99.90
2019-05-19T09:52:04.677Z,99.90
2019-05-19T09:54:44.050Z,99.90
2019-05-19T09:57:02.000Z,99.90
2019-05-19T09:59:29.665Z,99.90
2019-05-19T10:01:57.316Z,99.90
2019-05-19T10:04:24.971Z,99.90
2019-05-19T10:06:52.640Z,99.90
2019-05-19T10:09:22.163Z,99.90
2019-05-19T10:12:08.685Z,99.90
2019-05-19T10:14:36.407Z,99.90
2019-05-19T10:17:04.123Z,99.90
2019-05-19T10:19:31.923Z,99.90
2019-05-19T10:22:01.684Z,99.90
2019-05-19T10:24:29.352Z,99.90
2019-05-19T10:26:57.009Z,99.90
2019-05-19T10:29:24.692Z,99.90
2019-05-19T10:31:54.597Z,99.90
2019-05-19T10:34:22.392Z,99.90
2019-05-19T10:36:50.052Z,99.90
2019-05-19T10:44:12.459Z,99.90
2019-05-19T10:46:40.119Z,99.90
2019-05-19T10:49:07.767Z,99.90
2019-05-19T10:51:35.450Z,99.90
2019-05-19T10:54:03.191Z,98.10
2019-05-19T10:58:58.244Z,96.50
2019-05-19T11:01:25.981Z,99.90
2019-05-19T11:03:53.634Z,99.60
2019-05-19T11:06:21.380Z,94.70
2019-05-19T11:08:49.041Z,93.70
2019-05-19T11:11:26.843Z,93.90
2019-05-19T11:16:21.966Z,91.30
2019-05-19T11:18:49.672Z,88.70
2019-05-19T11:21:19.255Z,84.80
2019-05-19T11:26:14.338Z,85.40
2019-05-19T11:28:42.071Z,84.90
2019-05-19T11:31:10.711Z,76.40
2019-05-19T11:33:38.378Z,74.60
2019-05-19T11:36:06.031Z,79.30
2019-05-19T11:38:33.683Z,77.30
2019-05-19T11:41:01.364Z,75.90
2019-05-19T11:48:23.769Z,71.70
2019-05-19T11:50:51.444Z,71.00
2019-05-19T11:53:19.140Z,69.30
2019-05-19T11:55:46.862Z,69.80
2019-05-19T11:58:14.508Z,75.30
2019-05-19T12:00:42.169Z,71.30
2019-05-19T12:03:09.884Z,69.80
2019-05-19T12:05:37.541Z,71.70
2019-05-19T12:08:05.202Z,69.00
2019-05-19T12:10:32.908Z,64.40
2019-05-19T12:13:00.559Z,65.70
2019-05-19T12:15:28.211Z,72.50
2019-05-19T12:17:55.952Z,77.80
2019-05-19T12:20:23.613Z,68.90
2019-05-19T12:22:51.281Z,67.50
2019-05-19T12:27:46.330Z,61.10
2019-05-19T12:30:20.480Z,58.20
2019-05-19T12:32:48.224Z,59.60
2019-05-19T12:35:16.136Z,58.90
2019-05-19T12:37:43.808Z,58.30
2019-05-19T12:40:11.549Z,54.20
2019-05-19T12:42:39.212Z,54.30
2019-05-19T12:47:34.311Z,55.30
2019-05-19T12:50:02.364Z,57.10
2019-05-19T12:52:31.313Z,60.20
2019-05-19T12:54:58.988Z,64.50
2019-05-19T12:57:26.740Z,60.70
2019-05-19T12:59:54.459Z,58.60
2019-05-19T13:02:23.120Z,60.20
2019-05-19T13:12:14.683Z,53.20
2019-05-19T13:14:42.327Z,52.30
2019-05-19T13:19:37.383Z,52.60
2019-05-19T13:22:05.196Z,54.70
2019-05-19T13:24:32.845Z,53.90
2019-05-19T13:29:27.911Z,52.40
2019-05-19T13:31:55.551Z,53.40
2019-05-19T13:34:23.244Z,55.50
2019-05-19T13:36:50.954Z,56.00
2019-05-19T13:39:18.639Z,55.10
2019-05-19T13:41:46.299Z,54.80
2019-05-19T13:44:13.950Z,58.40
2019-05-19T13:46:41.606Z,60.90
2019-05-19T13:49:09.278Z,66.40
2019-05-19T13:51:36.919Z,62.40
2019-05-19T13:54:04.603Z,67.50
2019-05-19T13:56:32.254Z,67.60
2019-05-19T13:58:59.923Z,70.20
2019-05-19T14:01:28.994Z,71.40
2019-05-19T14:03:56.815Z,63.30
2019-05-19T14:06:24.475Z,61.50
2019-05-19T14:08:52.150Z,70.70
2019-05-19T14:11:19.812Z,74.00
2019-05-19T14:13:47.470Z,61.60
2019-05-19T14:16:15.115Z,74.30
2019-05-19T14:18:42.771Z,77.30
2019-05-19T14:21:10.449Z,81.40
2019-05-19T14:23:38.127Z,80.50
2019-05-19T14:26:05.778Z,81.20
2019-05-19T14:33:28.268Z,90.40
2019-05-19T14:35:55.940Z,90.30
2019-05-19T14:38:23.596Z,92.80
2019-05-19T14:43:22.993Z,98.90
2019-05-19T14:45:50.630Z,93.90
2019-05-19T14:48:18.294Z,93.00
2019-05-19T14:50:45.958Z,92.40
2019-05-19T14:53:13.607Z,90.50
2019-05-19T14:55:41.276Z,83.80
2019-05-19T14:58:08.920Z,92.20
2019-05-19T15:00:36.575Z,93.20
2019-05-19T15:03:04.231Z,90.70
2019-05-19T15:05:31.888Z,90.60
2019-05-19T15:07:59.527Z,91.60
2019-05-19T15:15:21.994Z,87.70
2019-05-19T15:17:49.640Z,89.40
2019-05-19T15:20:17.359Z,87.30
2019-05-19T15:22:46.953Z,82.40
2019-05-19T15:25:14.694Z,73.80
2019-05-19T15:27:42.344Z,72.60
2019-05-19T15:30:13.539Z,70.10
2019-05-19T15:32:39.688Z,71.20
2019-05-19T15:35:07.474Z,72.40
2019-05-19T15:37:35.183Z,69.60
2019-05-19T15:40:04.151Z,66.10
2019-05-19T15:42:40.943Z,62.40
2019-05-19T15:45:08.913Z,66.00
2019-05-19T15:47:36.591Z,64.90
2019-05-19T15:50:05.755Z,62.50
2019-05-19T15:52:33.375Z,62.90
2019-05-19T15:55:01.034Z,64.20
2019-05-19T15:57:28.846Z,65.60
2019-05-19T15:59:56.526Z,69.20
2019-05-19T16:02:33.287Z,72.60
2019-05-19T16:05:00.948Z,75.20
2019-05-19T16:17:24.304Z,86.00
2019-05-19T16:24:46.728Z,88.00
2019-05-19T16:27:14.376Z,89.70
2019-05-19T16:32:09.513Z,92.00
2019-05-19T16:34:37.239Z,90.80
2019-05-19T16:39:32.346Z,90.50
2019-05-19T16:42:00.030Z,91.40
2019-05-19T16:44:27.776Z,91.40
2019-05-19T16:46:55.460Z,93.30
2019-05-19T16:51:50.536Z,92.60
2019-05-19T16:54:19.886Z,92.70
2019-05-19T16:56:47.634Z,92.90
2019-05-19T16:59:15.345Z,94.10
2019-05-19T17:01:43.027Z,94.30
2019-05-19T17:06:38.080Z,99.90
2019-05-19T17:09:05.912Z,99.90
2019-05-19T17:11:33.572Z,97.10
2019-05-19T17:16:28.589Z,99.80
2019-05-19T17:18:56.259Z,99.90
2019-05-19T17:21:24.674Z,99.90
2019-05-19T17:23:52.338Z,99.90
2019-05-19T17:26:19.999Z,99.90
2019-05-19T17:28:59.803Z,99.90
2019-05-19T17:33:51.548Z,99.90
2019-05-19T17:36:19.207Z,99.90
2019-05-19T17:38:46.849Z,99.90
2019-05-19T17:41:14.516Z,99.90
2019-05-19T17:43:42.185Z,99.90
2019-05-19T17:46:09.852Z,99.90
2019-05-19T17:48:37.487Z,99.90
2019-05-19T17:51:05.419Z,99.90
2019-05-19T17:53:33.132Z,99.90
2019-05-19T17:56:01.595Z,99.90
2019-05-19T18:00:56.668Z,99.90
2019-05-19T18:03:25.260Z,99.90
2019-05-19T18:05:52.920Z,99.90
2019-05-19T18:08:20.595Z,99.90
2019-05-19T18:10:48.300Z,99.90
2019-05-19T18:13:29.287Z,99.90
2019-05-19T18:15:57.011Z,99.90
2019-05-19T18:18:24.656Z,99.90
2019-05-19T18:20:52.347Z,99.90
2019-05-19T18:23:29.133Z,99.90
2019-05-19T18:25:56.873Z,99.90
2019-05-19T18:28:24.515Z,99.90
2019-05-19T18:30:52.188Z,99.90
2019-05-19T18:33:19.859Z,99.90
2019-05-19T18:35:47.503Z,99.90
2019-05-19T18:38:15.143Z,99.90
2019-05-19T18:40:42.793Z,99.90
2019-05-19T18:43:10.431Z,99.90
2019-05-19T18:45:38.088Z,99.90
2019-05-19T18:48:05.759Z,99.90
2019-05-19T18:50:33.453Z,99.90
2019-05-19T18:55:28.611Z,99.90
2019-05-19T18:57:56.296Z,99.90
2019-05-19T19:00:25.479Z,99.90
2019-05-19T19:02:55.076Z,99.90
2019-05-19T19:05:22.726Z,99.90
2019-05-19T19:07:52.027Z,99.90
2019-05-19T19:10:19.667Z,99.90
2019-05-19T19:12:56.168Z,99.90
2019-05-19T19:15:23.804Z,99.90
2019-05-19T19:17:51.449Z,99.90
2019-05-19T19:20:19.147Z,99.90
2019-05-19T19:25:14.315Z,99.90
2019-05-19T19:27:41.956Z,99.90
2019-05-19T19:30:09.771Z,99.90
2019-05-19T19:32:42.363Z,99.90
2019-05-19T19:35:10.088Z,99.90
2019-05-19T19:37:37.724Z,99.90
2019-05-19T19:40:05.945Z,99.90
2019-05-19T19:42:42.642Z,99.90
2019-05-19T19:45:10.310Z,99.90
2019-05-19T19:50:05.747Z,99.90
2019-05-19T19:52:33.378Z,99.90
2019-05-19T19:57:28.410Z,99.90
2019-05-19T19:59:56.047Z,99.90
2019-05-19T20:02:25.672Z,99.90
2019-05-19T20:04:53.330Z,99.90
2019-05-19T20:07:21.041Z,99.90
2019-05-19T20:09:48.707Z,99.90
2019-05-19T20:14:45.811Z,99.90
2019-05-19T20:17:13.451Z,99.90
2019-05-19T20:19:41.104Z,99.90
2019-05-19T20:22:16.577Z,99.90
2019-05-19T20:24:44.230Z,99.90
2019-05-19T20:27:11.883Z,99.90
2019-05-19T20:29:39.530Z,99.90
2019-05-19T20:32:09.063Z,99.90
2019-05-19T20:34:36.715Z,99.90
2019-05-19T20:37:04.342Z,99.90
2019-05-19T20:39:32.023Z,99.90
2019-05-19T20:42:03.292Z,99.90
2019-05-19T20:44:30.939Z,99.90
2019-05-19T20:46:58.588Z,99.90
2019-05-19T20:49:26.230Z,99.90
2019-05-19T20:51:53.872Z,99.90
2019-05-19T20:54:21.531Z,99.90
2019-05-19T20:56:49.171Z,99.90
2019-05-19T20:59:16.855Z,99.90
2019-05-19T21:01:51.763Z,99.90
2019-05-19T21:04:19.443Z,99.90
2019-05-19T21:06:47.071Z,99.90
2019-05-19T21:09:14.751Z,99.90
2019-05-19T21:11:43.343Z,99.90
2019-05-19T21:14:11.010Z,99.90
2019-05-19T21:16:38.672Z,99.90
2019-05-19T21:19:06.349Z,99.90
2019-05-19T21:21:33.993Z,99.90
2019-05-19T21:24:01.636Z,99.90
2019-05-19T21:26:29.316Z,99.90
2019-05-19T21:28:56.967Z,99.90
2019-05-19T21:31:35.601Z,99.90
2019-05-19T21:34:03.263Z,99.90
2019-05-19T21:36:30.974Z,99.90
2019-05-19T21:38:58.670Z,99.90
2019-05-19T21:41:30.379Z,99.90
2019-05-19T21:43:58.062Z,99.90
2019-05-19T21:46:25.764Z,99.90
2019-05-19T21:48:53.441Z,99.90
2019-05-19T21:51:21.162Z,99.90
2019-05-19T21:53:48.832Z,99.90
2019-05-19T21:56:16.520Z,99.90
2019-05-19T21:58:44.179Z,99.90
2019-05-19T22:01:22.613Z,99.90
2019-05-19T22:03:41.369Z,99.90
2019-05-19T22:06:09.029Z,99.90
2019-05-19T22:08:36.679Z,99.90
2019-05-19T22:11:04.710Z,99.90
2019-05-19T22:13:32.572Z,99.90
2019-05-19T22:16:12.323Z,99.90
2019-05-19T22:18:29.596Z,99.90
2019-05-19T22:20:57.296Z,99.90
2019-05-19T22:23:24.983Z,99.90
2019-05-19T22:25:52.643Z,99.90
2019-05-19T22:28:20.302Z,99.90
2019-05-19T22:30:47.968Z,99.90
2019-05-19T22:33:24.841Z,99.90
2019-05-19T22:35:52.510Z,99.90
2019-05-19T22:38:20.134Z,99.90
2019-05-19T22:40:47.787Z,99.90
2019-05-19T22:43:21.525Z,99.90
2019-05-19T22:45:49.172Z,99.90
2019-05-19T22:48:16.823Z,99.90
2019-05-19T22:50:44.475Z,99.90
2019-05-19T22:53:12.111Z,99.90
2019-05-19T22:55:39.779Z,99.90
2019-05-19T22:58:07.499Z,99.90
2019-05-19T23:00:35.155Z,99.90
2019-05-19T23:03:18.891Z,99.90
2019-05-19T23:05:46.550Z,99.90
2019-05-19T23:08:14.199Z,99.90
2019-05-19T23:10:41.857Z,99.90
2019-05-19T23:13:09.489Z,99.90
2019-05-19T23:15:37.135Z,99.90
2019-05-19T23:18:04.787Z,99.90
2019-05-19T23:20:32.442Z,99.90
2019-05-19T23:23:00.082Z,99.90
2019-05-19T23:25:27.727Z,99.90
2019-05-19T23:27:55.375Z,99.90
2019-05-19T23:30:23.010Z,99.90
2019-05-19T23:32:54.931Z,99.90
2019-05-19T23:35:22.569Z,99.90
2019-05-19T23:37:50.222Z,99.90
2019-05-19T23:40:17.926Z,99.90
2019-05-19T23:42:45.589Z,99.90
2019-05-19T23:45:13.295Z,99.90
2019-05-19T23:47:40.934Z,99.90
2019-05-19T23:55:06.250Z,99.90
